Time;durP1;ratioP1;P1;durP2;ratioP2;P2;SDS_P1;SDS_P2;PMS_P1;PMS_P2;Temp;Humidity;BMP_temperature;BMP_pressure;BME280_temperature;BME280_humidity;BME280_pressure;Samples;Min_cycle;Max_cycle;Signal;HPM_P1;HPM_P2
2021/09/10 00:00:58;;;;;;;23.13;13.90;;;;;;;;;;5048803;28;20088;-78
2021/09/10 00:03:26;;;;;;;29.52;14.20;;;;;;;;;;5048368;28;20049;-78
2021/09/10 00:05:53;;;;;;;21.17;14.23;;;;;;;;;;5042509;28;20056;-78
2021/09/10 00:08:21;;;;;;;23.27;14.13;;;;;;;;;;5039712;28;20151;-78
2021/09/10 00:10:48;;;;;;;23.90;15.25;;;;;;;;;;5039070;28;20063;-78
2021/09/10 00:13:15;;;;;;;23.85;14.73;;;;;;;;;;5051340;28;20128;-78
2021/09/10 00:15:42;;;;;;;20.73;14.20;;;;;;;;;;5078743;28;20480;-78
2021/09/10 00:18:10;;;;;;;23.02;14.05;;;;;;;;;;5042164;28;20041;-78
2021/09/10 00:20:37;;;;;;;25.30;14.30;;;;;;;;;;5046756;28;20051;-78
2021/09/10 00:23:04;;;;;;;26.30;13.60;;;;;;;;;;5042873;28;20096;-78
2021/09/10 00:25:31;;;;;;;22.50;14.23;;;;;;;;;;5049923;28;20127;-79
2021/09/10 00:27:58;;;;;;;24.00;13.85;;;;;;;;;;5050226;28;20094;-78
2021/09/10 00:30:25;;;;;;;23.35;14.57;;;;;;;;;;5048537;28;20087;-78
2021/09/10 00:32:53;;;;;;;24.25;14.75;;;;;;;;;;5049118;28;20787;-78
2021/09/10 00:35:20;;;;;;;25.88;14.52;;;;;;;;;;5052567;28;20132;-78
2021/09/10 00:37:47;;;;;;;25.70;14.88;;;;;;;;;;5069003;28;20441;-78
2021/09/10 00:40:14;;;;;;;24.80;14.10;;;;;;;;;;5061866;28;20124;-78
2021/09/10 00:42:41;;;;;;;22.83;14.27;;;;;;;;;;5062038;28;20056;-78
2021/09/10 00:45:09;;;;;;;25.45;13.40;;;;;;;;;;5042389;28;20132;-79
2021/09/10 00:47:37;;;;;;;26.30;15.10;;;;;;;;;;5043228;28;20045;-78
2021/09/10 00:50:04;;;;;;;25.58;13.70;;;;;;;;;;5063392;28;20834;-78
2021/09/10 00:52:32;;;;;;;25.90;13.90;;;;;;;;;;5051829;28;20148;-78
2021/09/10 00:54:59;;;;;;;23.92;14.57;;;;;;;;;;5055684;28;20152;-78
2021/09/10 00:57:26;;;;;;;23.77;13.70;;;;;;;;;;5058625;28;20066;-78
2021/09/10 00:59:54;;;;;;;22.15;14.05;;;;;;;;;;5035075;28;20156;-79
2021/09/10 01:02:21;;;;;;;22.05;14.32;;;;;;;;;;5047690;28;20055;-78
2021/09/10 01:04:49;;;;;;;27.67;14.15;;;;;;;;;;5049628;28;20061;-78
2021/09/10 01:07:17;;;;;;;26.33;14.05;;;;;;;;;;5047409;28;20497;-78
2021/09/10 01:13:14;;;;;;;21.02;13.00;;;;;;;;;;5036417;28;20136;-78
2021/09/10 01:15:41;;;;;;;22.50;13.63;;;;;;;;;;5047538;28;20703;-78
2021/09/10 01:18:08;;;;;;;27.52;14.15;;;;;;;;;;5050726;28;20136;-78
2021/09/10 01:20:35;;;;;;;23.98;14.40;;;;;;;;;;5038683;28;20124;-78
2021/09/10 01:23:03;;;;;;;23.92;14.00;;;;;;;;;;5041809;28;20052;-78
2021/09/10 01:25:30;;;;;;;21.80;13.75;;;;;;;;;;5058718;28;20132;-78
2021/09/10 01:27:58;;;;;;;21.55;13.50;;;;;;;;;;5029334;28;20678;-78
2021/09/10 01:30:26;;;;;;;22.42;13.30;;;;;;;;;;5051771;28;20084;-78
2021/09/10 01:32:54;;;;;;;21.17;14.05;;;;;;;;;;5049087;28;20076;-78
2021/09/10 01:35:21;;;;;;;22.25;13.23;;;;;;;;;;5066326;28;20041;-76
2021/09/10 01:37:48;;;;;;;22.20;13.98;;;;;;;;;;5060460;28;20127;-76
2021/09/10 01:40:16;;;;;;;25.40;13.90;;;;;;;;;;5035532;28;20466;-76
2021/09/10 01:42:43;;;;;;;24.33;12.90;;;;;;;;;;5047235;28;20088;-76
2021/09/10 01:45:12;;;;;;;19.02;13.35;;;;;;;;;;5043671;28;20451;-76
2021/09/10 01:47:39;;;;;;;19.88;12.98;;;;;;;;;;5038815;28;20090;-76
2021/09/10 01:50:08;;;;;;;21.15;13.13;;;;;;;;;;5046051;28;20465;-76
2021/09/10 01:52:36;;;;;;;21.35;13.15;;;;;;;;;;5040216;28;20556;-76
2021/09/10 01:55:04;;;;;;;21.40;13.27;;;;;;;;;;5039500;28;20050;-76
2021/09/10 01:57:31;;;;;;;21.60;14.60;;;;;;;;;;5058487;28;20552;-76
2021/09/10 01:59:58;;;;;;;19.17;12.65;;;;;;;;;;5066606;28;20060;-76
2021/09/10 02:02:25;;;;;;;22.02;13.88;;;;;;;;;;5041693;28;20080;-76
2021/09/10 02:04:53;;;;;;;23.85;13.60;;;;;;;;;;5054634;28;20091;-76
2021/09/10 02:07:20;;;;;;;25.67;13.30;;;;;;;;;;5037917;28;20128;-76
2021/09/10 02:09:47;;;;;;;22.52;12.93;;;;;;;;;;5090059;28;20086;-76
2021/09/10 02:12:15;;;;;;;24.20;14.65;;;;;;;;;;5055427;28;20140;-76
2021/09/10 02:14:42;;;;;;;19.92;13.15;;;;;;;;;;5055949;28;20118;-76
2021/09/10 02:17:09;;;;;;;20.42;13.43;;;;;;;;;;5053265;28;20080;-76
2021/09/10 02:19:36;;;;;;;25.73;14.05;;;;;;;;;;5033569;28;20087;-76
2021/09/10 02:22:03;;;;;;;22.33;12.98;;;;;;;;;;5035883;28;20151;-76
2021/09/10 02:24:30;;;;;;;21.83;13.65;;;;;;;;;;5052422;28;20119;-77
2021/09/10 02:26:58;;;;;;;22.83;14.27;;;;;;;;;;5055052;28;20167;-77
2021/09/10 02:29:25;;;;;;;26.13;14.13;;;;;;;;;;5047887;28;20127;-77
2021/09/10 02:31:52;;;;;;;20.42;13.93;;;;;;;;;;5046813;28;20609;-77
2021/09/10 02:34:20;;;;;;;19.58;13.00;;;;;;;;;;5027141;28;20062;-77
2021/09/10 02:36:47;;;;;;;22.23;13.82;;;;;;;;;;5055219;28;20125;-76
2021/09/10 02:39:14;;;;;;;23.73;13.23;;;;;;;;;;5048136;28;20067;-77
2021/09/10 02:41:42;;;;;;;24.83;14.35;;;;;;;;;;5038203;28;20485;-77
2021/09/10 02:44:09;;;;;;;24.38;13.95;;;;;;;;;;5072995;28;20063;-77
2021/09/10 02:46:38;;;;;;;20.95;13.88;;;;;;;;;;5053782;28;20053;-77
2021/09/10 02:49:06;;;;;;;24.80;14.05;;;;;;;;;;5046634;28;20144;-77
2021/09/10 02:51:33;;;;;;;25.70;14.82;;;;;;;;;;5045574;28;20127;-77
2021/09/10 02:54:00;;;;;;;21.25;13.65;;;;;;;;;;5044723;28;20540;-77
2021/09/10 02:56:28;;;;;;;21.38;14.30;;;;;;;;;;5052745;28;20120;-77
2021/09/10 02:58:55;;;;;;;23.98;13.95;;;;;;;;;;5041354;28;20455;-77
2021/09/10 03:01:22;;;;;;;23.52;14.18;;;;;;;;;;5043729;28;20124;-77
2021/09/10 03:03:49;;;;;;;28.98;14.43;;;;;;;;;;5052698;28;20118;-77
2021/09/10 03:06:17;;;;;;;25.38;12.88;;;;;;;;;;5049062;28;20056;-77
2021/09/10 03:08:44;;;;;;;22.88;13.35;;;;;;;;;;5047744;28;20053;-77
2021/09/10 03:11:12;;;;;;;26.48;15.38;;;;;;;;;;5046195;28;20774;-77
2021/09/10 03:13:40;;;;;;;23.77;14.18;;;;;;;;;;5045616;28;20131;-77
2021/09/10 03:16:07;;;;;;;25.83;15.32;;;;;;;;;;5049635;28;20060;-77
2021/09/10 03:18:34;;;;;;;25.42;15.05;;;;;;;;;;5047696;28;20111;-77
2021/09/10 03:21:01;;;;;;;30.33;15.93;;;;;;;;;;5047310;28;20171;-77
2021/09/10 03:23:28;;;;;;;25.75;15.13;;;;;;;;;;5048240;28;20485;-77
2021/09/10 03:25:56;;;;;;;27.77;16.27;;;;;;;;;;5048088;28;20049;-77
2021/09/10 03:28:23;;;;;;;25.90;15.55;;;;;;;;;;5045953;28;20140;-78
2021/09/10 03:30:50;;;;;;;27.90;16.00;;;;;;;;;;5046851;28;20132;-77
2021/09/10 03:33:18;;;;;;;20.60;13.93;;;;;;;;;;5059303;28;20071;-77
2021/09/10 03:35:45;;;;;;;26.30;16.17;;;;;;;;;;5062253;28;20087;-78
2021/09/10 03:38:12;;;;;;;26.15;16.02;;;;;;;;;;5045907;28;20516;-78
2021/09/10 03:40:39;;;;;;;26.27;14.90;;;;;;;;;;5040619;28;20124;-78
2021/09/10 03:43:07;;;;;;;24.20;14.07;;;;;;;;;;5048626;28;20139;-77
2021/09/10 03:45:35;;;;;;;27.42;14.68;;;;;;;;;;5045726;28;20080;-77
2021/09/10 03:48:03;;;;;;;22.65;14.82;;;;;;;;;;5047286;28;20076;-77
2021/09/10 03:50:30;;;;;;;24.13;15.13;;;;;;;;;;5051736;28;20091;-78
2021/09/10 03:52:57;;;;;;;23.30;14.48;;;;;;;;;;5051496;28;20478;-77
2021/09/10 03:55:25;;;;;;;27.40;15.85;;;;;;;;;;5059259;28;20135;-78
2021/09/10 03:57:52;;;;;;;25.63;14.85;;;;;;;;;;5052150;28;20048;-78
2021/09/10 04:00:19;;;;;;;24.95;14.85;;;;;;;;;;5053507;28;20065;-77
2021/09/10 04:02:47;;;;;;;24.63;14.65;;;;;;;;;;5054271;28;20080;-77
2021/09/10 04:05:15;;;;;;;25.50;15.15;;;;;;;;;;5036209;28;20041;-77
2021/09/10 04:07:42;;;;;;;26.90;15.07;;;;;;;;;;5049198;28;20053;-77
2021/09/10 04:10:09;;;;;;;26.65;14.63;;;;;;;;;;5051490;28;20051;-77
2021/09/10 04:12:36;;;;;;;29.77;15.52;;;;;;;;;;5036532;28;20468;-77
2021/09/10 04:15:04;;;;;;;27.40;14.82;;;;;;;;;;5039072;28;20131;-77
2021/09/10 04:17:31;;;;;;;35.58;18.80;;;;;;;;;;5053426;28;20132;-77
2021/09/10 04:19:59;;;;;;;25.30;15.98;;;;;;;;;;5050102;28;20521;-76
2021/09/10 04:22:26;;;;;;;28.23;16.02;;;;;;;;;;5050240;28;20049;-76
2021/09/10 04:24:53;;;;;;;29.08;16.60;;;;;;;;;;5046488;28;20039;-76
2021/09/10 04:27:20;;;;;;;27.05;15.65;;;;;;;;;;5057146;28;20076;-76
2021/09/10 04:29:47;;;;;;;26.73;16.75;;;;;;;;;;5059490;28;20542;-76
2021/09/10 04:32:15;;;;;;;26.80;15.80;;;;;;;;;;5036493;28;20095;-76
2021/09/10 04:34:43;;;;;;;32.30;16.42;;;;;;;;;;5049699;28;20136;-76
2021/09/10 04:37:10;;;;;;;24.13;15.73;;;;;;;;;;5048248;28;20132;-76
2021/09/10 04:39:38;;;;;;;23.52;14.75;;;;;;;;;;5043653;28;20052;-76
2021/09/10 04:42:05;;;;;;;23.83;14.63;;;;;;;;;;5066730;28;20135;-76
2021/09/10 04:44:32;;;;;;;29.65;15.57;;;;;;;;;;5038181;28;20144;-76
2021/09/10 04:46:59;;;;;;;24.85;15.82;;;;;;;;;;5062700;28;20123;-77
2021/09/10 04:49:26;;;;;;;30.80;15.73;;;;;;;;;;5065788;28;20068;-77
2021/09/10 04:51:53;;;;;;;23.30;15.18;;;;;;;;;;5043119;28;20049;-77
2021/09/10 04:54:21;;;;;;;25.92;14.52;;;;;;;;;;5053124;28;20050;-77
2021/09/10 04:56:48;;;;;;;27.95;15.27;;;;;;;;;;5049868;28;20052;-78
2021/09/10 04:59:15;;;;;;;27.30;15.48;;;;;;;;;;5052480;28;20132;-77
2021/09/10 05:01:43;;;;;;;25.65;15.70;;;;;;;;;;5045103;28;20049;-78
2021/09/10 05:04:12;;;;;;;28.00;16.02;;;;;;;;;;5047802;28;20084;-77
2021/09/10 05:06:39;;;;;;;32.13;14.63;;;;;;;;;;5063081;28;20081;-78
2021/09/10 05:09:06;;;;;;;30.67;15.65;;;;;;;;;;5053872;28;20084;-78
2021/09/10 05:11:33;;;;;;;29.52;16.30;;;;;;;;;;5053589;28;20049;-80
2021/09/10 05:14:01;;;;;;;29.17;17.85;;;;;;;;;;5052369;28;20896;-80
2021/09/10 05:16:28;;;;;;;24.88;15.32;;;;;;;;;;5034192;28;20096;-79
2021/09/10 05:18:55;;;;;;;32.25;17.73;;;;;;;;;;5046167;28;20095;-80
2021/09/10 05:21:22;;;;;;;37.70;17.02;;;;;;;;;;5052060;28;20750;-82
2021/09/10 05:23:49;;;;;;;30.50;17.33;;;;;;;;;;5059718;28;20454;-80
2021/09/10 05:26:17;;;;;;;31.65;18.55;;;;;;;;;;5043923;28;20474;-81
2021/09/10 05:28:45;;;;;;;38.35;17.65;;;;;;;;;;5052297;28;20085;-82
2021/09/10 05:31:12;;;;;;;33.28;18.02;;;;;;;;;;5046813;28;20124;-86
2021/09/10 05:33:41;;;;;;;40.38;19.08;;;;;;;;;;5065276;28;20041;-83
2021/09/10 05:36:09;;;;;;;37.08;19.35;;;;;;;;;;5038867;28;20062;-86
2021/09/10 05:38:36;;;;;;;32.30;16.88;;;;;;;;;;5048564;28;20135;-81
2021/09/10 05:41:06;;;;;;;36.60;19.08;;;;;;;;;;5065224;28;20072;-80
2021/09/10 05:43:33;;;;;;;40.30;20.00;;;;;;;;;;5050569;28;20060;-80
2021/09/10 05:46:01;;;;;;;36.63;18.65;;;;;;;;;;5052619;28;20085;-80
2021/09/10 05:48:28;;;;;;;38.25;19.67;;;;;;;;;;5051227;28;20037;-80
2021/09/10 05:50:55;;;;;;;28.48;18.20;;;;;;;;;;5033162;28;20104;-80
2021/09/10 05:53:25;;;;;;;32.53;18.98;;;;;;;;;;5050787;28;20136;-80
2021/09/10 05:55:52;;;;;;;41.35;18.55;;;;;;;;;;5042454;28;20045;-80
2021/09/10 05:58:19;;;;;;;30.90;18.08;;;;;;;;;;5043848;28;20442;-80
2021/09/10 06:00:46;;;;;;;35.63;19.15;;;;;;;;;;5050964;28;20135;-80
2021/09/10 06:03:13;;;;;;;34.55;17.88;;;;;;;;;;5042505;28;20072;-80
2021/09/10 06:05:41;;;;;;;37.17;19.92;;;;;;;;;;5050678;28;20057;-80
2021/09/10 06:08:16;;;;;;;29.23;18.35;;;;;;;;;;5055059;28;20566;-80
2021/09/10 06:10:46;;;;;;;31.02;18.23;;;;;;;;;;5057895;28;20079;-80
2021/09/10 06:13:17;;;;;;;37.17;18.55;;;;;;;;;;5070911;28;20082;-80
2021/09/10 06:15:44;;;;;;;33.30;18.08;;;;;;;;;;5048661;28;20087;-80
2021/09/10 06:18:11;;;;;;;40.47;17.90;;;;;;;;;;5031982;28;20493;-80
2021/09/10 06:20:38;;;;;;;30.58;17.80;;;;;;;;;;5054771;28;20135;-80
2021/09/10 06:23:06;;;;;;;38.78;19.52;;;;;;;;;;5048398;28;20136;-80
2021/09/10 06:25:33;;;;;;;34.10;18.45;;;;;;;;;;5069352;28;20075;-80
2021/09/10 06:28:00;;;;;;;30.48;19.88;;;;;;;;;;5071688;28;20044;-80
2021/09/10 06:30:27;;;;;;;30.50;19.10;;;;;;;;;;5055537;28;20067;-80
2021/09/10 06:32:54;;;;;;;40.28;18.13;;;;;;;;;;5042192;28;20156;-80
2021/09/10 06:35:22;;;;;;;31.40;17.42;;;;;;;;;;5051828;28;20135;-80
2021/09/10 06:37:50;;;;;;;28.95;17.85;;;;;;;;;;5050948;28;20123;-80
2021/09/10 06:40:17;;;;;;;26.42;18.00;;;;;;;;;;5058911;28;20140;-81
2021/09/10 06:42:44;;;;;;;31.42;18.65;;;;;;;;;;5066021;28;20087;-81
2021/09/10 06:45:12;;;;;;;29.83;17.38;;;;;;;;;;5030493;28;20140;-80
2021/09/10 06:47:39;;;;;;;29.55;16.92;;;;;;;;;;5049895;28;20085;-80
2021/09/10 06:50:09;;;;;;;33.70;17.80;;;;;;;;;;5047735;28;20079;-80
2021/09/10 06:52:38;;;;;;;28.00;18.23;;;;;;;;;;5052140;28;20486;-80
2021/09/10 06:55:07;;;;;;;32.95;17.10;;;;;;;;;;5036811;28;20418;-81
2021/09/10 06:57:34;;;;;;;31.25;17.90;;;;;;;;;;5033369;28;20084;-81
2021/09/10 07:00:02;;;;;;;39.83;20.02;;;;;;;;;;5063425;28;20140;-81
2021/09/10 07:02:29;;;;;;;30.05;18.13;;;;;;;;;;5031986;28;20249;-81
2021/09/10 07:04:57;;;;;;;29.95;18.60;;;;;;;;;;5063222;28;20049;-80
2021/09/10 07:07:24;;;;;;;29.67;18.83;;;;;;;;;;5071453;28;20139;-80
2021/09/10 07:09:51;;;;;;;31.70;18.42;;;;;;;;;;5059396;28;20135;-81
2021/09/10 07:12:19;;;;;;;32.33;19.20;;;;;;;;;;5064252;28;20066;-81
2021/09/10 07:14:46;;;;;;;36.78;19.33;;;;;;;;;;5073934;28;20088;-81
2021/09/10 07:17:13;;;;;;;36.97;19.00;;;;;;;;;;5067465;28;20127;-81
2021/09/10 07:19:40;;;;;;;35.60;19.73;;;;;;;;;;5054169;28;20080;-80
2021/09/10 07:22:12;;;;;;;30.42;19.05;;;;;;;;;;5049156;28;20383;-81
2021/09/10 07:24:39;;;;;;;31.40;18.27;;;;;;;;;;5035565;28;20077;-81
2021/09/10 07:27:07;;;;;;;25.50;17.30;;;;;;;;;;5068117;28;20498;-81
2021/09/10 07:29:34;;;;;;;37.33;20.60;;;;;;;;;;5053803;28;20048;-81
2021/09/10 07:32:01;;;;;;;30.13;19.15;;;;;;;;;;5053997;28;20084;-81
2021/09/10 07:34:31;;;;;;;32.45;19.70;;;;;;;;;;5053664;28;20076;-81
2021/09/10 07:36:59;;;;;;;32.42;18.80;;;;;;;;;;5055146;28;20460;-81
2021/09/10 07:39:26;;;;;;;29.50;18.23;;;;;;;;;;5053561;28;20084;-81
2021/09/10 07:41:54;;;;;;;29.02;17.88;;;;;;;;;;5060768;28;20076;-81
2021/09/10 07:44:21;;;;;;;32.28;17.92;;;;;;;;;;5033953;28;20045;-81
2021/09/10 07:46:52;;;;;;;31.00;18.42;;;;;;;;;;5049873;28;20466;-81
2021/09/10 07:49:20;;;;;;;26.63;17.30;;;;;;;;;;5048440;23;20045;-81
2021/09/10 07:51:47;;;;;;;28.45;15.95;;;;;;;;;;5031631;28;20494;-81
2021/09/10 07:54:14;;;;;;;25.88;16.67;;;;;;;;;;5031809;28;20165;-81
2021/09/10 07:56:42;;;;;;;29.00;18.25;;;;;;;;;;5031846;28;20432;-81
2021/09/10 07:59:09;;;;;;;30.90;16.60;;;;;;;;;;5031291;28;20132;-81
2021/09/10 08:01:36;;;;;;;29.00;18.08;;;;;;;;;;5027724;28;20080;-82
2021/09/10 08:04:04;;;;;;;27.88;17.80;;;;;;;;;;5029154;28;20578;-82
2021/09/10 08:06:33;;;;;;;29.67;16.38;;;;;;;;;;5031581;28;20049;-81
2021/09/10 08:09:01;;;;;;;28.75;18.23;;;;;;;;;;5030221;28;20112;-82
2021/09/10 08:11:29;;;;;;;28.20;19.33;;;;;;;;;;5031979;28;20489;-81
2021/09/10 08:13:57;;;;;;;28.17;19.05;;;;;;;;;;5031918;28;20053;-81
2021/09/10 08:16:25;;;;;;;32.92;19.00;;;;;;;;;;5031862;28;20453;-81
2021/09/10 08:18:53;;;;;;;28.02;17.70;;;;;;;;;;5031210;28;20057;-82
2021/09/10 08:21:40;;;;;;;32.28;19.33;;;;;;;;;;5032358;28;20053;-81
2021/09/10 08:24:09;;;;;;;33.33;19.00;;;;;;;;;;5032256;28;20053;-81
2021/09/10 08:26:36;;;;;;;33.55;20.27;;;;;;;;;;5031089;28;20041;-81
2021/09/10 08:29:04;;;;;;;32.03;19.17;;;;;;;;;;5030970;28;20077;-82
2021/09/10 08:31:31;;;;;;;32.00;20.08;;;;;;;;;;5030551;28;20617;-82
2021/09/10 08:33:58;;;;;;;29.45;19.23;;;;;;;;;;5030513;28;20063;-81
2021/09/10 08:36:25;;;;;;;29.70;19.73;;;;;;;;;;5030530;28;20149;-81
2021/09/10 08:38:52;;;;;;;31.92;19.92;;;;;;;;;;5030946;28;20056;-81
2021/09/10 08:41:23;;;;;;;29.20;18.98;;;;;;;;;;5032035;28;20088;-81
2021/09/10 08:43:50;;;;;;;33.40;18.55;;;;;;;;;;5031239;28;20486;-81
2021/09/10 08:46:18;;;;;;;28.90;19.38;;;;;;;;;;5031946;28;20049;-82
2021/09/10 08:48:46;;;;;;;32.33;19.00;;;;;;;;;;5029379;28;20077;-82
2021/09/10 08:51:14;;;;;;;31.52;19.88;;;;;;;;;;5026745;28;20917;-82
2021/09/10 08:53:41;;;;;;;30.40;19.13;;;;;;;;;;5029939;28;20832;-82
2021/09/10 08:56:08;;;;;;;27.98;18.98;;;;;;;;;;5029866;28;20057;-82
2021/09/10 08:58:36;;;;;;;27.30;18.70;;;;;;;;;;5030810;28;20594;-81
2021/09/10 09:01:04;;;;;;;33.35;18.85;;;;;;;;;;5031531;28;20073;-82
2021/09/10 09:03:32;;;;;;;38.92;19.58;;;;;;;;;;5029796;28;20049;-82
2021/09/10 09:06:03;;;;;;;27.33;17.70;;;;;;;;;;5029605;28;20064;-82
2021/09/10 09:08:30;;;;;;;34.53;18.60;;;;;;;;;;5031331;28;20103;-82
2021/09/10 09:11:03;;;;;;;34.47;18.38;;;;;;;;;;5029807;28;20111;-82
2021/09/10 09:13:41;;;;;;;29.85;18.77;;;;;;;;;;5029900;28;20045;-82
2021/09/10 09:16:11;;;;;;;33.47;20.50;;;;;;;;;;5030750;28;20049;-82
2021/09/10 09:18:43;;;;;;;28.23;19.70;;;;;;;;;;5029641;28;20057;-82
2021/09/10 09:21:10;;;;;;;30.15;18.70;;;;;;;;;;5031151;28;20457;-82
2021/09/10 09:23:37;;;;;;;37.42;20.88;;;;;;;;;;5029327;28;20081;-82
2021/09/10 09:26:16;;;;;;;32.75;18.38;;;;;;;;;;5031039;28;20041;-82
2021/09/10 09:28:43;;;;;;;26.45;18.88;;;;;;;;;;5031248;28;20089;-82
2021/09/10 09:31:12;;;;;;;28.70;19.02;;;;;;;;;;5030373;28;20053;-82
2021/09/10 09:33:45;;;;;;;26.00;18.17;;;;;;;;;;5029779;28;20060;-82
2021/09/10 09:36:15;;;;;;;27.52;18.35;;;;;;;;;;5029344;28;20076;-82
2021/09/10 09:38:43;;;;;;;29.77;18.40;;;;;;;;;;5029510;28;20144;-83
2021/09/10 09:41:14;;;;;;;31.42;18.38;;;;;;;;;;5029868;28;20144;-82
2021/09/10 09:43:45;;;;;;;36.45;20.15;;;;;;;;;;5029423;28;20145;-82
2021/09/10 09:46:17;;;;;;;27.20;18.83;;;;;;;;;;5029360;28;20077;-83
2021/09/10 09:48:46;;;;;;;35.55;20.65;;;;;;;;;;5028655;28;20055;-83
2021/09/10 09:51:15;;;;;;;31.00;20.27;;;;;;;;;;5029524;28;20057;-82
2021/09/10 09:53:43;;;;;;;33.42;20.48;;;;;;;;;;5028920;28;20061;-83
2021/09/10 09:56:11;;;;;;;30.15;19.65;;;;;;;;;;5029642;28;20132;-83
2021/09/10 09:58:41;;;;;;;26.92;18.35;;;;;;;;;;5030566;28;20132;-82
2021/09/10 10:01:10;;;;;;;25.90;17.27;;;;;;;;;;5030648;28;20057;-83
2021/09/10 10:03:39;;;;;;;28.33;17.30;;;;;;;;;;5030348;28;20418;-83
2021/09/10 10:06:11;;;;;;;26.05;18.05;;;;;;;;;;5030856;28;20060;-82
2021/09/10 10:08:38;;;;;;;23.40;18.42;;;;;;;;;;5029364;28;20076;-82
2021/09/10 10:11:09;;;;;;;37.17;21.13;;;;;;;;;;5028872;28;20049;-82
2021/09/10 10:13:36;;;;;;;28.20;18.80;;;;;;;;;;5029832;28;20053;-82
2021/09/10 10:16:03;;;;;;;32.33;20.35;;;;;;;;;;5029929;28;20077;-82
2021/09/10 10:18:47;;;;;;;40.25;22.65;;;;;;;;;;5028537;28;20041;-82
2021/09/10 10:21:15;;;;;;;33.83;20.58;;;;;;;;;;5029546;28;20065;-81
2021/09/10 10:23:42;;;;;;;40.25;22.48;;;;;;;;;;5028976;28;20141;-83
2021/09/10 10:26:20;;;;;;;31.40;21.65;;;;;;;;;;5029902;28;20089;-81
2021/09/10 10:28:51;;;;;;;31.33;20.63;;;;;;;;;;5029042;28;20045;-82
2021/09/10 10:31:20;;;;;;;38.10;21.15;;;;;;;;;;5028986;28;20117;-81
2021/09/10 10:33:48;;;;;;;34.25;21.85;;;;;;;;;;5028392;28;20095;-81
2021/09/10 10:36:31;;;;;;;36.55;22.88;;;;;;;;;;5028524;28;20083;-83
2021/09/10 10:39:08;;;;;;;37.70;20.80;;;;;;;;;;5028602;28;20100;-82
2021/09/10 10:41:57;;;;;;;35.08;21.83;;;;;;;;;;5028315;28;20564;-82
2021/09/10 10:44:31;;;;;;;34.75;24.05;;;;;;;;;;5028061;28;20133;-82
2021/09/10 10:47:08;;;;;;;34.28;22.98;;;;;;;;;;5030181;28;20552;-82
2021/09/10 10:49:39;;;;;;;34.47;21.00;;;;;;;;;;5028173;28;20107;-82
2021/09/10 10:52:26;;;;;;;34.58;20.70;;;;;;;;;;5029804;28;20055;-82
2021/09/10 10:55:12;;;;;;;31.52;20.27;;;;;;;;;;5029646;28;20861;-82
2021/09/10 10:57:39;;;;;;;29.33;18.00;;;;;;;;;;5028520;28;20081;-83
2021/09/10 11:00:42;;;;;;;30.63;19.10;;;;;;;;;;5028585;28;20081;-82
2021/09/10 11:03:18;;;;;;;33.05;20.05;;;;;;;;;;4987612;28;20062;-83
2021/09/10 11:05:47;;;;;;;29.20;18.42;;;;;;;;;;5020117;28;20061;-82
2021/09/10 11:08:36;;;;;;;34.25;18.45;;;;;;;;;;5028584;28;20144;-82
2021/09/10 11:11:03;;;;;;;26.80;17.10;;;;;;;;;;5028622;28;20053;-82
2021/09/10 11:13:31;;;;;;;26.85;17.17;;;;;;;;;;5028517;28;20088;-82
2021/09/10 11:15:58;;;;;;;32.58;17.77;;;;;;;;;;5028855;28;20080;-82
2021/09/10 11:18:26;;;;;;;29.27;18.17;;;;;;;;;;5029305;28;20085;-82
2021/09/10 11:20:54;;;;;;;25.23;17.00;;;;;;;;;;5028792;28;20099;-82
2021/09/10 11:23:38;;;;;;;28.83;16.48;;;;;;;;;;5029356;28;20136;-82
2021/09/10 11:26:07;;;;;;;24.17;16.63;;;;;;;;;;5028715;28;20151;-82
2021/09/10 11:28:36;;;;;;;37.35;17.58;;;;;;;;;;5027708;28;20143;-82
2021/09/10 11:31:04;;;;;;;30.23;17.95;;;;;;;;;;5029398;28;20061;-82
2021/09/10 11:33:46;;;;;;;31.63;15.60;;;;;;;;;;5027953;28;20080;-82
2021/09/10 11:36:23;;;;;;;28.48;15.57;;;;;;;;;;5029320;28;20132;-82
2021/09/10 11:38:59;;;;;;;31.15;14.48;;;;;;;;;;5027892;28;20084;-82
2021/09/10 11:41:32;;;;;;;27.88;15.48;;;;;;;;;;5027828;28;20046;-82
2021/09/10 11:44:09;;;;;;;25.65;15.05;;;;;;;;;;5027498;28;20681;-83
2021/09/10 11:46:37;;;;;;;21.10;13.95;;;;;;;;;;5027656;28;20160;-81
2021/09/10 11:49:04;;;;;;;24.58;15.32;;;;;;;;;;5027849;28;20084;-82
2021/09/10 11:51:39;;;;;;;23.23;14.07;;;;;;;;;;5027885;28;20096;-82
2021/09/10 11:54:10;;;;;;;22.70;15.02;;;;;;;;;;5030872;28;20124;-82
2021/09/10 11:56:38;;;;;;;25.00;13.70;;;;;;;;;;5031661;28;20510;-82
2021/09/10 11:59:17;;;;;;;20.13;14.07;;;;;;;;;;5032216;28;20050;-82
2021/09/10 12:01:45;;;;;;;18.30;13.00;;;;;;;;;;5032940;28;20077;-82
2021/09/10 12:04:24;;;;;;;19.27;12.95;;;;;;;;;;5029704;28;20313;-82
2021/09/10 12:06:53;;;;;;;24.10;12.38;;;;;;;;;;5027404;28;20140;-82
2021/09/10 12:09:20;;;;;;;16.98;11.52;;;;;;;;;;5031735;28;20050;-82
2021/09/10 12:12:06;;;;;;;19.73;12.23;;;;;;;;;;5031524;28;20508;-82
2021/09/10 12:14:35;;;;;;;18.27;11.38;;;;;;;;;;5031847;28;20084;-82
2021/09/10 12:17:14;;;;;;;9.68;7.60;;;;;;;;;;5032601;28;20099;-82
2021/09/10 12:20:04;;;;;;;11.38;6.90;;;;;;;;;;5030881;28;20049;-82
2021/09/10 12:22:34;;;;;;;8.82;4.90;;;;;;;;;;5030815;28;20132;-82
2021/09/10 12:25:25;;;;;;;6.80;4.65;;;;;;;;;;5031120;28;20140;-82
2021/09/10 12:27:52;;;;;;;24.08;6.30;;;;;;;;;;5032373;28;20406;-82
2021/09/10 12:30:20;;;;;;;7.95;4.45;;;;;;;;;;5032446;28;20049;-82
2021/09/10 12:32:47;;;;;;;8.10;4.53;;;;;;;;;;5030318;28;20088;-82
2021/09/10 12:35:15;;;;;;;7.78;4.45;;;;;;;;;;5030156;28;20053;-82
2021/09/10 12:37:51;;;;;;;7.30;4.22;;;;;;;;;;5030698;28;20134;-82
2021/09/10 12:40:18;;;;;;;11.48;5.07;;;;;;;;;;5032605;28;20095;-82
2021/09/10 12:42:45;;;;;;;10.25;4.70;;;;;;;;;;5030744;28;20493;-82
2021/09/10 12:45:13;;;;;;;7.25;3.95;;;;;;;;;;5031383;28;20582;-82
2021/09/10 12:47:40;;;;;;;9.50;4.20;;;;;;;;;;5030494;28;20128;-81
2021/09/10 12:50:08;;;;;;;8.05;3.67;;;;;;;;;;5031200;28;20049;-82
2021/09/10 12:52:36;;;;;;;7.55;3.80;;;;;;;;;;5031957;28;20052;-82
2021/09/10 12:55:06;;;;;;;5.40;3.80;;;;;;;;;;5031529;28;20512;-81
2021/09/10 12:57:34;;;;;;;10.00;4.25;;;;;;;;;;5032512;28;20132;-82
2021/09/10 13:00:01;;;;;;;7.45;4.20;;;;;;;;;;5031446;28;20145;-82
2021/09/10 13:02:28;;;;;;;5.95;3.70;;;;;;;;;;5031847;28;20085;-82
2021/09/10 13:04:56;;;;;;;6.63;4.28;;;;;;;;;;5031890;28;20732;-81
2021/09/10 13:07:23;;;;;;;17.85;5.20;;;;;;;;;;5031806;28;20084;-82
2021/09/10 13:09:50;;;;;;;11.68;5.38;;;;;;;;;;5030620;28;20091;-82
2021/09/10 13:12:17;;;;;;;12.50;5.20;;;;;;;;;;5030907;28;20525;-82
2021/09/10 13:14:48;;;;;;;7.95;4.95;;;;;;;;;;5030117;28;20053;-81
2021/09/10 13:17:16;;;;;;;14.32;4.10;;;;;;;;;;5032048;28;20053;-83
2021/09/10 13:19:43;;;;;;;9.70;4.63;;;;;;;;;;5031239;28;20681;-82
2021/09/10 13:22:11;;;;;;;8.15;3.95;;;;;;;;;;5029757;28;20088;-82
2021/09/10 13:24:43;;;;;;;7.25;3.80;;;;;;;;;;5029999;28;20056;-82
2021/09/10 13:27:12;;;;;;;8.02;4.25;;;;;;;;;;5030279;28;20128;-82
2021/09/10 13:29:39;;;;;;;12.60;3.53;;;;;;;;;;5030145;28;20247;-82
2021/09/10 13:32:07;;;;;;;12.07;3.80;;;;;;;;;;5031341;28;20140;-82
2021/09/10 13:34:34;;;;;;;6.80;3.20;;;;;;;;;;5030262;28;20490;-81
2021/09/10 13:37:01;;;;;;;9.20;3.78;;;;;;;;;;5030757;28;20137;-82
2021/09/10 13:39:32;;;;;;;5.78;3.40;;;;;;;;;;5029719;28;20120;-83
2021/09/10 13:42:01;;;;;;;6.07;2.90;;;;;;;;;;5028624;28;20494;-86
2021/09/10 13:44:29;;;;;;;6.68;2.88;;;;;;;;;;5029187;28;20140;-80
2021/09/10 13:46:56;;;;;;;5.25;2.92;;;;;;;;;;5029683;28;20164;-82
2021/09/10 13:49:23;;;;;;;4.40;3.55;;;;;;;;;;5028237;28;20087;-82
2021/09/10 13:51:55;;;;;;;67.47;9.25;;;;;;;;;;5026738;28;20061;-86
2021/09/10 13:54:23;;;;;;;7.82;3.65;;;;;;;;;;5027891;28;20081;-87
2021/09/10 13:56:51;;;;;;;10.40;3.47;;;;;;;;;;5027222;28;20049;-82
2021/09/10 13:59:19;;;;;;;6.38;3.47;;;;;;;;;;5030788;28;20103;-83
2021/09/10 14:01:53;;;;;;;7.03;3.25;;;;;;;;;;5029665;28;20053;-82
2021/09/10 14:04:21;;;;;;;6.93;3.20;;;;;;;;;;5030847;28;20050;-82
2021/09/10 14:06:49;;;;;;;8.35;4.07;;;;;;;;;;5030754;28;20140;-83
2021/09/10 14:09:21;;;;;;;10.80;3.40;;;;;;;;;;5029608;28;20128;-83
2021/09/10 14:11:48;;;;;;;6.07;4.57;;;;;;;;;;5030993;28;20053;-82
2021/09/10 14:14:21;;;;;;;4.68;3.40;;;;;;;;;;5030616;28;20096;-83
2021/09/10 14:16:50;;;;;;;4.80;3.38;;;;;;;;;;5030693;28;20132;-82
2021/09/10 14:19:19;;;;;;;8.93;3.72;;;;;;;;;;5031267;28;20128;-84
2021/09/10 14:21:46;;;;;;;7.90;3.85;;;;;;;;;;5031984;28;20068;-83
2021/09/10 14:24:13;;;;;;;6.55;3.53;;;;;;;;;;5031669;28;20137;-84
2021/09/10 14:26:40;;;;;;;7.57;3.90;;;;;;;;;;5031492;28;20049;-84
2021/09/10 14:29:08;;;;;;;9.32;3.60;;;;;;;;;;5029964;28;20449;-85
2021/09/10 14:31:35;;;;;;;4.93;3.63;;;;;;;;;;5030654;28;20469;-84
2021/09/10 14:34:06;;;;;;;8.98;4.20;;;;;;;;;;5029109;28;20164;-85